sensor_id;sensor_type;location;lat;lon;timestamp;P1;durP1;ratioP1;P2;durP2;ratioP2
26181;SDS011;13927;51.534;11.866;2024-02-26T00:01:59;4.68;;;3.00;;
26181;SDS011;13927;51.534;11.866;2024-02-26T00:04:25;4.82;;;3.10;;
26181;SDS011;13927;51.534;11.866;2024-02-26T00:06:51;7.40;;;3.05;;
26181;SDS011;13927;51.534;11.866;2024-02-26T00:09:19;4.32;;;2.70;;
26181;SDS011;13927;51.534;11.866;2024-02-26T00:11:45;4.53;;;2.58;;
26181;SDS011;13927;51.534;11.866;2024-02-26T00:14:11;5.38;;;3.33;;
26181;SDS011;13927;51.534;11.866;2024-02-26T00:16:40;4.85;;;3.28;;
26181;SDS011;13927;51.534;11.866;2024-02-26T00:19:06;7.30;;;4.00;;
26181;SDS011;13927;51.534;11.866;2024-02-26T00:21:33;8.88;;;3.13;;
26181;SDS011;13927;51.534;11.866;2024-02-26T00:23:59;4.90;;;2.85;;
26181;SDS011;13927;51.534;11.866;2024-02-26T00:26:25;6.07;;;3.55;;
26181;SDS011;13927;51.534;11.866;2024-02-26T00:28:51;5.60;;;3.17;;
26181;SDS011;13927;51.534;11.866;2024-02-26T00:31:17;5.30;;;3.10;;
26181;SDS011;13927;51.534;11.866;2024-02-26T00:33:43;5.32;;;3.03;;
26181;SDS011;13927;51.534;11.866;2024-02-26T00:36:09;4.50;;;3.03;;
26181;SDS011;13927;51.534;11.866;2024-02-26T00:38:36;5.25;;;3.47;;
26181;SDS011;13927;51.534;11.866;2024-02-26T00:41:02;4.47;;;2.80;;
26181;SDS011;13927;51.534;11.866;2024-02-26T00:43:28;5.70;;;3.15;;
26181;SDS011;13927;51.534;11.866;2024-02-26T00:45:55;6.95;;;2.80;;
26181;SDS011;13927;51.534;11.866;2024-02-26T00:48:21;4.90;;;3.15;;
26181;SDS011;13927;51.534;11.866;2024-02-26T00:50:47;7.05;;;3.70;;
26181;SDS011;13927;51.534;11.866;2024-02-26T00:53:13;4.43;;;3.10;;
26181;SDS011;13927;51.534;11.866;2024-02-26T00:55:39;3.40;;;2.47;;
26181;SDS011;13927;51.534;11.866;2024-02-26T00:58:06;4.10;;;2.88;;
26181;SDS011;13927;51.534;11.866;2024-02-26T01:00:32;4.53;;;3.20;;
26181;SDS011;13927;51.534;11.866;2024-02-26T01:02:58;4.43;;;2.95;;
26181;SDS011;13927;51.534;11.866;2024-02-26T01:05:25;5.82;;;3.38;;
26181;SDS011;13927;51.534;11.866;2024-02-26T01:07:51;3.35;;;2.50;;
26181;SDS011;13927;51.534;11.866;2024-02-26T01:10:17;3.75;;;2.58;;
26181;SDS011;13927;51.534;11.866;2024-02-26T01:12:43;6.78;;;3.13;;
26181;SDS011;13927;51.534;11.866;2024-02-26T01:15:09;5.75;;;3.33;;
26181;SDS011;13927;51.534;11.866;2024-02-26T01:17:36;4.85;;;2.90;;
26181;SDS011;13927;51.534;11.866;2024-02-26T01:20:02;6.03;;;3.13;;
26181;SDS011;13927;51.534;11.866;2024-02-26T01:22:29;4.18;;;2.72;;
26181;SDS011;13927;51.534;11.866;2024-02-26T01:24:56;5.95;;;3.03;;
26181;SDS011;13927;51.534;11.866;2024-02-26T01:27:22;5.90;;;3.13;;
26181;SDS011;13927;51.534;11.866;2024-02-26T01:29:52;5.70;;;3.33;;
26181;SDS011;13927;51.534;11.866;2024-02-26T01:32:18;3.97;;;2.97;;
26181;SDS011;13927;51.534;11.866;2024-02-26T01:34:44;4.05;;;2.47;;
26181;SDS011;13927;51.534;11.866;2024-02-26T01:37:11;6.82;;;3.40;;
26181;SDS011;13927;51.534;11.866;2024-02-26T01:39:37;6.78;;;3.00;;
26181;SDS011;13927;51.534;11.866;2024-02-26T01:42:03;5.10;;;3.42;;
26181;SDS011;13927;51.534;11.866;2024-02-26T01:44:29;4.32;;;2.75;;
26181;SDS011;13927;51.534;11.866;2024-02-26T01:46:55;5.47;;;2.63;;
26181;SDS011;13927;51.534;11.866;2024-02-26T01:49:21;4.38;;;2.92;;
26181;SDS011;13927;51.534;11.866;2024-02-26T01:51:47;4.53;;;2.80;;
26181;SDS011;13927;51.534;11.866;2024-02-26T01:54:14;6.13;;;2.50;;
26181;SDS011;13927;51.534;11.866;2024-02-26T01:56:39;7.13;;;2.97;;
26181;SDS011;13927;51.534;11.866;2024-02-26T01:59:06;4.60;;;2.92;;
26181;SDS011;13927;51.534;11.866;2024-02-26T02:01:34;6.85;;;3.25;;
26181;SDS011;13927;51.534;11.866;2024-02-26T02:04:00;3.85;;;2.95;;
26181;SDS011;13927;51.534;11.866;2024-02-26T02:06:27;7.05;;;3.42;;
26181;SDS011;13927;51.534;11.866;2024-02-26T02:08:56;4.43;;;2.65;;
26181;SDS011;13927;51.534;11.866;2024-02-26T02:11:22;6.03;;;3.00;;
26181;SDS011;13927;51.534;11.866;2024-02-26T02:13:47;4.60;;;3.08;;
26181;SDS011;13927;51.534;11.866;2024-02-26T02:16:13;5.25;;;3.55;;
26181;SDS011;13927;51.534;11.866;2024-02-26T02:18:39;6.00;;;3.50;;
26181;SDS011;13927;51.534;11.866;2024-02-26T02:21:05;5.43;;;3.17;;
26181;SDS011;13927;51.534;11.866;2024-02-26T02:23:30;6.03;;;3.05;;
26181;SDS011;13927;51.534;11.866;2024-02-26T02:25:56;5.93;;;2.63;;
26181;SDS011;13927;51.534;11.866;2024-02-26T02:28:26;5.97;;;3.58;;
26181;SDS011;13927;51.534;11.866;2024-02-26T02:30:53;4.70;;;3.15;;
26181;SDS011;13927;51.534;11.866;2024-02-26T02:33:20;6.10;;;3.42;;
26181;SDS011;13927;51.534;11.866;2024-02-26T02:35:47;7.03;;;3.70;;
26181;SDS011;13927;51.534;11.866;2024-02-26T02:38:13;6.78;;;3.35;;
26181;SDS011;13927;51.534;11.866;2024-02-26T02:40:39;5.78;;;3.40;;
26181;SDS011;13927;51.534;11.866;2024-02-26T02:43:05;7.32;;;4.00;;
26181;SDS011;13927;51.534;11.866;2024-02-26T02:45:30;5.18;;;3.08;;
26181;SDS011;13927;51.534;11.866;2024-02-26T02:47:56;4.95;;;3.35;;
26181;SDS011;13927;51.534;11.866;2024-02-26T02:50:22;6.47;;;3.53;;
26181;SDS011;13927;51.534;11.866;2024-02-26T02:52:48;4.88;;;2.85;;
26181;SDS011;13927;51.534;11.866;2024-02-26T02:55:15;6.40;;;3.17;;
26181;SDS011;13927;51.534;11.866;2024-02-26T02:57:41;7.30;;;4.05;;
26181;SDS011;13927;51.534;11.866;2024-02-26T03:00:10;5.50;;;3.10;;
26181;SDS011;13927;51.534;11.866;2024-02-26T03:02:36;6.85;;;3.78;;
26181;SDS011;13927;51.534;11.866;2024-02-26T03:05:05;5.28;;;3.28;;
26181;SDS011;13927;51.534;11.866;2024-02-26T03:07:31;4.68;;;3.22;;
26181;SDS011;13927;51.534;11.866;2024-02-26T03:09:57;6.68;;;3.70;;
26181;SDS011;13927;51.534;11.866;2024-02-26T03:12:23;5.85;;;3.17;;
26181;SDS011;13927;51.534;11.866;2024-02-26T03:14:49;6.22;;;3.72;;
26181;SDS011;13927;51.534;11.866;2024-02-26T03:17:14;6.05;;;3.03;;
26181;SDS011;13927;51.534;11.866;2024-02-26T03:19:40;6.53;;;3.97;;
26181;SDS011;13927;51.534;11.866;2024-02-26T03:22:06;7.22;;;3.42;;
26181;SDS011;13927;51.534;11.866;2024-02-26T03:24:32;6.78;;;4.13;;
26181;SDS011;13927;51.534;11.866;2024-02-26T03:26:58;6.18;;;3.22;;
26181;SDS011;13927;51.534;11.866;2024-02-26T03:29:24;6.00;;;3.22;;
26181;SDS011;13927;51.534;11.866;2024-02-26T03:31:49;5.43;;;3.17;;
26181;SDS011;13927;51.534;11.866;2024-02-26T03:34:15;6.93;;;3.70;;
26181;SDS011;13927;51.534;11.866;2024-02-26T03:36:42;6.85;;;3.70;;
26181;SDS011;13927;51.534;11.866;2024-02-26T03:39:08;6.35;;;3.63;;
26181;SDS011;13927;51.534;11.866;2024-02-26T03:41:34;8.02;;;3.75;;
26181;SDS011;13927;51.534;11.866;2024-02-26T03:44:00;6.22;;;3.25;;
26181;SDS011;13927;51.534;11.866;2024-02-26T03:46:26;5.63;;;3.67;;
26181;SDS011;13927;51.534;11.866;2024-02-26T03:48:52;6.65;;;3.63;;
26181;SDS011;13927;51.534;11.866;2024-02-26T03:51:18;7.05;;;3.67;;
26181;SDS011;13927;51.534;11.866;2024-02-26T03:53:44;7.82;;;3.53;;
26181;SDS011;13927;51.534;11.866;2024-02-26T03:56:10;6.82;;;3.63;;
26181;SDS011;13927;51.534;11.866;2024-02-26T03:58:38;5.82;;;3.70;;
26181;SDS011;13927;51.534;11.866;2024-02-26T04:01:04;5.90;;;3.65;;
26181;SDS011;13927;51.534;11.866;2024-02-26T04:03:32;5.40;;;3.28;;
26181;SDS011;13927;51.534;11.866;2024-02-26T04:05:57;4.80;;;3.13;;
26181;SDS011;13927;51.534;11.866;2024-02-26T04:08:23;6.03;;;3.22;;
26181;SDS011;13927;51.534;11.866;2024-02-26T04:10:49;6.88;;;4.10;;
26181;SDS011;13927;51.534;11.866;2024-02-26T04:13:15;6.03;;;3.65;;
26181;SDS011;13927;51.534;11.866;2024-02-26T04:15:40;7.55;;;4.00;;
26181;SDS011;13927;51.534;11.866;2024-02-26T04:18:06;5.55;;;3.70;;
26181;SDS011;13927;51.534;11.866;2024-02-26T04:20:32;7.03;;;3.40;;
26181;SDS011;13927;51.534;11.866;2024-02-26T04:22:57;7.53;;;3.78;;
26181;SDS011;13927;51.534;11.866;2024-02-26T04:25:23;6.85;;;4.18;;
26181;SDS011;13927;51.534;11.866;2024-02-26T04:27:49;8.15;;;4.50;;
26181;SDS011;13927;51.534;11.866;2024-02-26T04:30:14;7.13;;;3.55;;
26181;SDS011;13927;51.534;11.866;2024-02-26T04:32:42;5.40;;;4.07;;
26181;SDS011;13927;51.534;11.866;2024-02-26T04:35:07;7.88;;;4.35;;
26181;SDS011;13927;51.534;11.866;2024-02-26T04:37:33;7.82;;;4.22;;
26181;SDS011;13927;51.534;11.866;2024-02-26T04:40:00;7.32;;;3.80;;
26181;SDS011;13927;51.534;11.866;2024-02-26T04:42:26;6.32;;;3.92;;
26181;SDS011;13927;51.534;11.866;2024-02-26T04:44:52;7.47;;;4.38;;
26181;SDS011;13927;51.534;11.866;2024-02-26T04:47:19;6.25;;;4.05;;
26181;SDS011;13927;51.534;11.866;2024-02-26T04:49:47;7.35;;;4.25;;
26181;SDS011;13927;51.534;11.866;2024-02-26T04:52:14;6.15;;;3.20;;
26181;SDS011;13927;51.534;11.866;2024-02-26T04:54:40;6.13;;;4.03;;
26181;SDS011;13927;51.534;11.866;2024-02-26T04:57:05;8.52;;;4.45;;
26181;SDS011;13927;51.534;11.866;2024-02-26T04:59:31;6.07;;;4.00;;
26181;SDS011;13927;51.534;11.866;2024-02-26T05:01:57;7.20;;;4.22;;
26181;SDS011;13927;51.534;11.866;2024-02-26T05:04:22;8.00;;;4.15;;
26181;SDS011;13927;51.534;11.866;2024-02-26T05:06:48;5.65;;;3.92;;
26181;SDS011;13927;51.534;11.866;2024-02-26T05:09:14;9.15;;;4.10;;
26181;SDS011;13927;51.534;11.866;2024-02-26T05:11:40;6.82;;;3.47;;
26181;SDS011;13927;51.534;11.866;2024-02-26T05:14:06;6.68;;;3.92;;
26181;SDS011;13927;51.534;11.866;2024-02-26T05:16:32;6.18;;;3.38;;
26181;SDS011;13927;51.534;11.866;2024-02-26T05:18:58;6.53;;;4.22;;
26181;SDS011;13927;51.534;11.866;2024-02-26T05:21:24;7.50;;;4.57;;
26181;SDS011;13927;51.534;11.866;2024-02-26T05:23:50;7.22;;;4.00;;
26181;SDS011;13927;51.534;11.866;2024-02-26T05:26:22;7.38;;;3.97;;
26181;SDS011;13927;51.534;11.866;2024-02-26T05:28:48;6.90;;;4.25;;
26181;SDS011;13927;51.534;11.866;2024-02-26T05:31:14;7.07;;;4.20;;
26181;SDS011;13927;51.534;11.866;2024-02-26T05:33:41;7.07;;;4.60;;
26181;SDS011;13927;51.534;11.866;2024-02-26T05:36:06;8.43;;;4.50;;
26181;SDS011;13927;51.534;11.866;2024-02-26T05:38:33;9.40;;;4.78;;
26181;SDS011;13927;51.534;11.866;2024-02-26T05:40:59;8.15;;;4.55;;
26181;SDS011;13927;51.534;11.866;2024-02-26T05:43:25;10.90;;;6.15;;
26181;SDS011;13927;51.534;11.866;2024-02-26T05:45:51;8.93;;;5.78;;
26181;SDS011;13927;51.534;11.866;2024-02-26T05:48:18;13.32;;;5.88;;
26181;SDS011;13927;51.534;11.866;2024-02-26T05:50:47;13.82;;;7.50;;
26181;SDS011;13927;51.534;11.866;2024-02-26T05:53:12;17.73;;;8.75;;
26181;SDS011;13927;51.534;11.866;2024-02-26T05:55:38;15.18;;;8.50;;
26181;SDS011;13927;51.534;11.866;2024-02-26T05:58:04;17.55;;;8.77;;
26181;SDS011;13927;51.534;11.866;2024-02-26T06:00:30;21.90;;;11.40;;
26181;SDS011;13927;51.534;11.866;2024-02-26T06:02:56;16.48;;;9.25;;
26181;SDS011;13927;51.534;11.866;2024-02-26T06:05:22;15.90;;;7.72;;
26181;SDS011;13927;51.534;11.866;2024-02-26T06:07:47;15.38;;;7.45;;
26181;SDS011;13927;51.534;11.866;2024-02-26T06:10:13;10.10;;;5.72;;
26181;SDS011;13927;51.534;11.866;2024-02-26T06:12:39;12.93;;;7.72;;
26181;SDS011;13927;51.534;11.866;2024-02-26T06:15:05;13.45;;;7.78;;
26181;SDS011;13927;51.534;11.866;2024-02-26T06:17:32;10.38;;;7.13;;
26181;SDS011;13927;51.534;11.866;2024-02-26T06:19:58;10.30;;;6.45;;
26181;SDS011;13927;51.534;11.866;2024-02-26T06:22:25;10.23;;;5.47;;
26181;SDS011;13927;51.534;11.866;2024-02-26T06:24:51;11.15;;;5.53;;
26181;SDS011;13927;51.534;11.866;2024-02-26T06:27:17;11.75;;;5.82;;
26181;SDS011;13927;51.534;11.866;2024-02-26T06:29:42;10.52;;;5.80;;
26181;SDS011;13927;51.534;11.866;2024-02-26T06:32:08;10.73;;;6.28;;
26181;SDS011;13927;51.534;11.866;2024-02-26T06:34:34;10.07;;;6.97;;
26181;SDS011;13927;51.534;11.866;2024-02-26T06:37:00;13.43;;;6.97;;
26181;SDS011;13927;51.534;11.866;2024-02-26T06:39:25;11.38;;;6.22;;
26181;SDS011;13927;51.534;11.866;2024-02-26T06:41:51;9.85;;;5.70;;
26181;SDS011;13927;51.534;11.866;2024-02-26T06:44:24;11.32;;;6.18;;
26181;SDS011;13927;51.534;11.866;2024-02-26T06:46:51;12.93;;;6.05;;
26181;SDS011;13927;51.534;11.866;2024-02-26T06:49:16;11.55;;;7.15;;
26181;SDS011;13927;51.534;11.866;2024-02-26T06:51:42;12.48;;;6.22;;
26181;SDS011;13927;51.534;11.866;2024-02-26T06:54:08;12.30;;;6.70;;
26181;SDS011;13927;51.534;11.866;2024-02-26T06:56:34;17.23;;;8.15;;
26181;SDS011;13927;51.534;11.866;2024-02-26T06:59:00;14.10;;;7.65;;
26181;SDS011;13927;51.534;11.866;2024-02-26T07:01:26;14.40;;;7.38;;
26181;SDS011;13927;51.534;11.866;2024-02-26T07:03:52;14.00;;;7.97;;
26181;SDS011;13927;51.534;11.866;2024-02-26T07:06:17;11.02;;;6.38;;
26181;SDS011;13927;51.534;11.866;2024-02-26T07:08:43;14.65;;;8.10;;
26181;SDS011;13927;51.534;11.866;2024-02-26T07:11:10;14.50;;;6.72;;
26181;SDS011;13927;51.534;11.866;2024-02-26T07:13:36;12.27;;;7.53;;
26181;SDS011;13927;51.534;11.866;2024-02-26T07:16:01;13.85;;;7.53;;
26181;SDS011;13927;51.534;11.866;2024-02-26T07:18:28;14.07;;;7.43;;
26181;SDS011;13927;51.534;11.866;2024-02-26T07:20:54;11.18;;;6.95;;
26181;SDS011;13927;51.534;11.866;2024-02-26T07:23:20;12.93;;;7.32;;
26181;SDS011;13927;51.534;11.866;2024-02-26T07:25:46;12.00;;;6.47;;
26181;SDS011;13927;51.534;11.866;2024-02-26T07:28:14;14.60;;;8.27;;
26181;SDS011;13927;51.534;11.866;2024-02-26T07:30:39;12.75;;;7.47;;
26181;SDS011;13927;51.534;11.866;2024-02-26T07:33:05;11.82;;;6.80;;
26181;SDS011;13927;51.534;11.866;2024-02-26T07:35:32;11.38;;;6.63;;
26181;SDS011;13927;51.534;11.866;2024-02-26T07:37:58;10.85;;;6.38;;
26181;SDS011;13927;51.534;11.866;2024-02-26T07:40:24;11.40;;;7.30;;
26181;SDS011;13927;51.534;11.866;2024-02-26T07:42:50;12.48;;;7.50;;
26181;SDS011;13927;51.534;11.866;2024-02-26T07:45:16;13.13;;;7.38;;
26181;SDS011;13927;51.534;11.866;2024-02-26T07:47:44;11.57;;;7.15;;
26181;SDS011;13927;51.534;11.866;2024-02-26T07:50:11;11.30;;;7.18;;
26181;SDS011;13927;51.534;11.866;2024-02-26T07:52:37;11.30;;;6.53;;
26181;SDS011;13927;51.534;11.866;2024-02-26T07:55:04;10.52;;;6.88;;
26181;SDS011;13927;51.534;11.866;2024-02-26T07:57:32;16.42;;;8.25;;
26181;SDS011;13927;51.534;11.866;2024-02-26T08:00:01;13.25;;;8.40;;
26181;SDS011;13927;51.534;11.866;2024-02-26T08:02:28;13.63;;;8.73;;
26181;SDS011;13927;51.534;11.866;2024-02-26T08:04:54;16.83;;;8.55;;
26181;SDS011;13927;51.534;11.866;2024-02-26T08:07:20;17.60;;;8.65;;
26181;SDS011;13927;51.534;11.866;2024-02-26T08:09:46;20.35;;;9.30;;
26181;SDS011;13927;51.534;11.866;2024-02-26T08:12:13;17.17;;;9.90;;
26181;SDS011;13927;51.534;11.866;2024-02-26T08:14:39;16.08;;;8.75;;
26181;SDS011;13927;51.534;11.866;2024-02-26T08:17:06;16.17;;;9.05;;
26181;SDS011;13927;51.534;11.866;2024-02-26T08:19:32;17.25;;;9.73;;
26181;SDS011;13927;51.534;11.866;2024-02-26T08:22:01;19.17;;;9.20;;
26181;SDS011;13927;51.534;11.866;2024-02-26T08:24:32;20.77;;;10.40;;
26181;SDS011;13927;51.534;11.866;2024-02-26T08:26:59;15.18;;;8.77;;
26181;SDS011;13927;51.534;11.866;2024-02-26T08:29:28;17.15;;;9.32;;
26181;SDS011;13927;51.534;11.866;2024-02-26T08:31:57;16.20;;;9.80;;
26181;SDS011;13927;51.534;11.866;2024-02-26T08:34:28;15.65;;;9.50;;
26181;SDS011;13927;51.534;11.866;2024-02-26T08:36:56;18.20;;;9.68;;
26181;SDS011;13927;51.534;11.866;2024-02-26T08:39:26;15.63;;;9.45;;
26181;SDS011;13927;51.534;11.866;2024-02-26T08:41:54;16.00;;;8.75;;
26181;SDS011;13927;51.534;11.866;2024-02-26T08:44:26;15.55;;;8.95;;
26181;SDS011;13927;51.534;11.866;2024-02-26T08:46:54;14.35;;;8.73;;
26181;SDS011;13927;51.534;11.866;2024-02-26T08:49:24;14.55;;;8.80;;
26181;SDS011;13927;51.534;11.866;2024-02-26T08:51:55;14.73;;;9.00;;
26181;SDS011;13927;51.534;11.866;2024-02-26T08:54:23;15.73;;;8.38;;
26181;SDS011;13927;51.534;11.866;2024-02-26T08:56:51;13.77;;;8.82;;
26181;SDS011;13927;51.534;11.866;2024-02-26T08:59:20;16.65;;;8.93;;
26181;SDS011;13927;51.534;11.866;2024-02-26T09:01:48;16.17;;;8.88;;
26181;SDS011;13927;51.534;11.866;2024-02-26T09:04:17;14.20;;;8.23;;
26181;SDS011;13927;51.534;11.866;2024-02-26T09:06:47;15.15;;;8.07;;
26181;SDS011;13927;51.534;11.866;2024-02-26T09:09:16;14.13;;;9.13;;
26181;SDS011;13927;51.534;11.866;2024-02-26T09:11:44;16.17;;;7.75;;
26181;SDS011;13927;51.534;11.866;2024-02-26T09:14:14;15.45;;;8.10;;
26181;SDS011;13927;51.534;11.866;2024-02-26T09:16:42;13.23;;;7.60;;
26181;SDS011;13927;51.534;11.866;2024-02-26T09:19:10;14.23;;;8.77;;
26181;SDS011;13927;51.534;11.866;2024-02-26T09:21:45;13.63;;;7.93;;
26181;SDS011;13927;51.534;11.866;2024-02-26T09:24:17;13.20;;;8.25;;
26181;SDS011;13927;51.534;11.866;2024-02-26T09:26:45;16.77;;;8.35;;
26181;SDS011;13927;51.534;11.866;2024-02-26T09:29:14;15.13;;;8.27;;
26181;SDS011;13927;51.534;11.866;2024-02-26T09:31:44;12.60;;;8.50;;
26181;SDS011;13927;51.534;11.866;2024-02-26T09:34:14;17.77;;;9.43;;
26181;SDS011;13927;51.534;11.866;2024-02-26T09:36:43;13.93;;;7.97;;
26181;SDS011;13927;51.534;11.866;2024-02-26T09:39:11;12.65;;;7.75;;
26181;SDS011;13927;51.534;11.866;2024-02-26T09:41:40;12.88;;;7.47;;
26181;SDS011;13927;51.534;11.866;2024-02-26T09:44:09;11.38;;;7.75;;
26181;SDS011;13927;51.534;11.866;2024-02-26T09:46:36;12.20;;;7.90;;
26181;SDS011;13927;51.534;11.866;2024-02-26T09:49:06;11.95;;;7.60;;
26181;SDS011;13927;51.534;11.866;2024-02-26T09:51:37;11.80;;;7.72;;
26181;SDS011;13927;51.534;11.866;2024-02-26T09:54:09;12.15;;;7.60;;
26181;SDS011;13927;51.534;11.866;2024-02-26T09:56:44;13.23;;;7.47;;
26181;SDS011;13927;51.534;11.866;2024-02-26T09:59:17;12.73;;;7.88;;
26181;SDS011;13927;51.534;11.866;2024-02-26T10:01:47;11.60;;;8.20;;
26181;SDS011;13927;51.534;11.866;2024-02-26T10:04:16;14.80;;;7.72;;
26181;SDS011;13927;51.534;11.866;2024-02-26T10:06:46;14.05;;;7.85;;
26181;SDS011;13927;51.534;11.866;2024-02-26T10:09:15;10.57;;;6.85;;
26181;SDS011;13927;51.534;11.866;2024-02-26T10:11:46;14.57;;;8.32;;
26181;SDS011;13927;51.534;11.866;2024-02-26T10:14:16;11.02;;;7.35;;
26181;SDS011;13927;51.534;11.866;2024-02-26T10:16:49;11.63;;;7.97;;
26181;SDS011;13927;51.534;11.866;2024-02-26T10:19:28;12.63;;;7.60;;
26181;SDS011;13927;51.534;11.866;2024-02-26T10:21:58;13.95;;;7.75;;
26181;SDS011;13927;51.534;11.866;2024-02-26T10:24:31;11.50;;;7.38;;
26181;SDS011;13927;51.534;11.866;2024-02-26T10:27:02;11.98;;;7.43;;
26181;SDS011;13927;51.534;11.866;2024-02-26T10:29:32;12.68;;;7.45;;
26181;SDS011;13927;51.534;11.866;2024-02-26T10:32:02;13.98;;;8.38;;
26181;SDS011;13927;51.534;11.866;2024-02-26T10:34:32;14.88;;;7.93;;
26181;SDS011;13927;51.534;11.866;2024-02-26T10:37:09;12.23;;;7.70;;
26181;SDS011;13927;51.534;11.866;2024-02-26T10:39:39;12.25;;;7.20;;
26181;SDS011;13927;51.534;11.866;2024-02-26T10:42:14;11.77;;;7.68;;
26181;SDS011;13927;51.534;11.866;2024-02-26T10:44:45;11.65;;;7.55;;
26181;SDS011;13927;51.534;11.866;2024-02-26T10:47:16;11.50;;;7.22;;
26181;SDS011;13927;51.534;11.866;2024-02-26T10:49:48;11.75;;;7.13;;
26181;SDS011;13927;51.534;11.866;2024-02-26T10:52:18;12.10;;;7.45;;
26181;SDS011;13927;51.534;11.866;2024-02-26T10:54:53;10.82;;;6.70;;
26181;SDS011;13927;51.534;11.866;2024-02-26T10:57:25;12.80;;;7.88;;
26181;SDS011;13927;51.534;11.866;2024-02-26T10:59:59;8.70;;;5.47;;
26181;SDS011;13927;51.534;11.866;2024-02-26T11:02:35;12.65;;;7.00;;
26181;SDS011;13927;51.534;11.866;2024-02-26T11:05:13;12.90;;;7.28;;
26181;SDS011;13927;51.534;11.866;2024-02-26T11:07:44;15.90;;;8.82;;
26181;SDS011;13927;51.534;11.866;2024-02-26T11:10:13;11.25;;;7.43;;
26181;SDS011;13927;51.534;11.866;2024-02-26T11:12:42;15.02;;;8.40;;
26181;SDS011;13927;51.534;11.866;2024-02-26T11:15:12;12.02;;;7.70;;
26181;SDS011;13927;51.534;11.866;2024-02-26T11:17:42;12.95;;;7.18;;
26181;SDS011;13927;51.534;11.866;2024-02-26T11:20:15;12.57;;;7.68;;
26181;SDS011;13927;51.534;11.866;2024-02-26T11:22:47;12.55;;;8.27;;
26181;SDS011;13927;51.534;11.866;2024-02-26T11:25:22;14.18;;;7.25;;
26181;SDS011;13927;51.534;11.866;2024-02-26T11:27:54;11.98;;;7.57;;
26181;SDS011;13927;51.534;11.866;2024-02-26T11:30:30;12.70;;;7.30;;
26181;SDS011;13927;51.534;11.866;2024-02-26T11:33:08;10.73;;;6.88;;
26181;SDS011;13927;51.534;11.866;2024-02-26T11:35:39;13.32;;;7.40;;
26181;SDS011;13927;51.534;11.866;2024-02-26T11:38:08;12.20;;;6.50;;
26181;SDS011;13927;51.534;11.866;2024-02-26T11:40:53;9.90;;;6.50;;
26181;SDS011;13927;51.534;11.866;2024-02-26T11:46:33;10.65;;;6.68;;
26181;SDS011;13927;51.534;11.866;2024-02-26T11:51:57;14.07;;;7.55;;
26181;SDS011;13927;51.534;11.866;2024-02-26T11:57:20;10.10;;;6.82;;
26181;SDS011;13927;51.534;11.866;2024-02-26T12:02:45;11.45;;;6.93;;
26181;SDS011;13927;51.534;11.866;2024-02-26T12:05:23;11.38;;;6.53;;
26181;SDS011;13927;51.534;11.866;2024-02-26T12:10:36;10.70;;;6.57;;
26181;SDS011;13927;51.534;11.866;2024-02-26T12:13:16;12.15;;;7.38;;
26181;SDS011;13927;51.534;11.866;2024-02-26T12:15:56;11.23;;;6.82;;
26181;SDS011;13927;51.534;11.866;2024-02-26T12:18:26;9.98;;;7.03;;
26181;SDS011;13927;51.534;11.866;2024-02-26T12:20:59;11.68;;;6.85;;
26181;SDS011;13927;51.534;11.866;2024-02-26T12:23:31;9.05;;;6.93;;
26181;SDS011;13927;51.534;11.866;2024-02-26T12:26:01;10.45;;;7.15;;
26181;SDS011;13927;51.534;11.866;2024-02-26T12:28:32;10.93;;;6.75;;
26181;SDS011;13927;51.534;11.866;2024-02-26T12:31:00;10.98;;;6.72;;
26181;SDS011;13927;51.534;11.866;2024-02-26T12:33:29;9.93;;;7.00;;
26181;SDS011;13927;51.534;11.866;2024-02-26T12:35:57;9.32;;;6.18;;
26181;SDS011;13927;51.534;11.866;2024-02-26T12:38:28;9.52;;;5.70;;
26181;SDS011;13927;51.534;11.866;2024-02-26T12:40:55;11.20;;;6.32;;
26181;SDS011;13927;51.534;11.866;2024-02-26T12:43:22;8.65;;;6.45;;
26181;SDS011;13927;51.534;11.866;2024-02-26T12:45:50;9.25;;;6.32;;
26181;SDS011;13927;51.534;11.866;2024-02-26T12:48:18;11.13;;;6.45;;
26181;SDS011;13927;51.534;11.866;2024-02-26T12:50:49;8.77;;;6.43;;
26181;SDS011;13927;51.534;11.866;2024-02-26T12:53:19;9.68;;;6.30;;
26181;SDS011;13927;51.534;11.866;2024-02-26T12:55:46;11.05;;;6.38;;
26181;SDS011;13927;51.534;11.866;2024-02-26T12:58:16;9.20;;;6.07;;
26181;SDS011;13927;51.534;11.866;2024-02-26T13:00:46;10.45;;;6.85;;
26181;SDS011;13927;51.534;11.866;2024-02-26T13:03:15;11.10;;;6.82;;
26181;SDS011;13927;51.534;11.866;2024-02-26T13:05:47;9.55;;;6.78;;
26181;SDS011;13927;51.534;11.866;2024-02-26T13:08:18;10.85;;;6.40;;
26181;SDS011;13927;51.534;11.866;2024-02-26T13:10:48;11.55;;;6.55;;
26181;SDS011;13927;51.534;11.866;2024-02-26T13:13:20;8.98;;;5.63;;
26181;SDS011;13927;51.534;11.866;2024-02-26T13:16:04;8.48;;;5.90;;
26181;SDS011;13927;51.534;11.866;2024-02-26T13:18:37;9.23;;;5.93;;
26181;SDS011;13927;51.534;11.866;2024-02-26T13:21:14;10.13;;;5.43;;
26181;SDS011;13927;51.534;11.866;2024-02-26T13:23:52;8.98;;;5.78;;
26181;SDS011;13927;51.534;11.866;2024-02-26T13:29:02;8.02;;;5.45;;
26181;SDS011;13927;51.534;11.866;2024-02-26T13:31:31;8.77;;;5.65;;
26181;SDS011;13927;51.534;11.866;2024-02-26T13:34:11;11.25;;;6.50;;
26181;SDS011;13927;51.534;11.866;2024-02-26T13:36:51;8.27;;;5.65;;
26181;SDS011;13927;51.534;11.866;2024-02-26T13:39:23;9.55;;;5.93;;
26181;SDS011;13927;51.534;11.866;2024-02-26T13:41:55;9.45;;;6.82;;
26181;SDS011;13927;51.534;11.866;2024-02-26T13:44:26;10.95;;;7.05;;
26181;SDS011;13927;51.534;11.866;2024-02-26T13:46:55;11.88;;;6.82;;
26181;SDS011;13927;51.534;11.866;2024-02-26T13:49:26;10.82;;;6.65;;
26181;SDS011;13927;51.534;11.866;2024-02-26T13:51:55;11.80;;;7.97;;
26181;SDS011;13927;51.534;11.866;2024-02-26T13:54:22;10.40;;;7.22;;
26181;SDS011;13927;51.534;11.866;2024-02-26T13:56:52;11.90;;;7.53;;
26181;SDS011;13927;51.534;11.866;2024-02-26T13:59:21;10.82;;;7.10;;
26181;SDS011;13927;51.534;11.866;2024-02-26T14:01:50;13.15;;;7.10;;
26181;SDS011;13927;51.534;11.866;2024-02-26T14:04:20;12.30;;;8.32;;
26181;SDS011;13927;51.534;11.866;2024-02-26T14:06:48;12.52;;;7.47;;
26181;SDS011;13927;51.534;11.866;2024-02-26T14:09:19;12.40;;;7.50;;
26181;SDS011;13927;51.534;11.866;2024-02-26T14:11:49;12.18;;;7.55;;
26181;SDS011;13927;51.534;11.866;2024-02-26T14:14:19;13.60;;;7.68;;
26181;SDS011;13927;51.534;11.866;2024-02-26T14:16:46;12.43;;;8.02;;
26181;SDS011;13927;51.534;11.866;2024-02-26T14:19:13;11.75;;;7.30;;
26181;SDS011;13927;51.534;11.866;2024-02-26T14:21:39;10.80;;;7.07;;
26181;SDS011;13927;51.534;11.866;2024-02-26T14:24:06;13.25;;;8.05;;
26181;SDS011;13927;51.534;11.866;2024-02-26T14:26:32;11.07;;;7.07;;
26181;SDS011;13927;51.534;11.866;2024-02-26T14:28:59;13.68;;;8.00;;
26181;SDS011;13927;51.534;11.866;2024-02-26T14:31:25;11.63;;;8.07;;
26181;SDS011;13927;51.534;11.866;2024-02-26T14:33:52;12.07;;;7.93;;
26181;SDS011;13927;51.534;11.866;2024-02-26T14:36:19;13.25;;;7.55;;
26181;SDS011;13927;51.534;11.866;2024-02-26T14:38:47;13.60;;;7.15;;
26181;SDS011;13927;51.534;11.866;2024-02-26T14:41:14;10.75;;;6.15;;
26181;SDS011;13927;51.534;11.866;2024-02-26T14:43:40;14.65;;;7.68;;
26181;SDS011;13927;51.534;11.866;2024-02-26T14:46:07;10.82;;;7.07;;
26181;SDS011;13927;51.534;11.866;2024-02-26T14:48:33;11.65;;;8.10;;
26181;SDS011;13927;51.534;11.866;2024-02-26T14:51:00;10.82;;;7.10;;